Time;durP1;ratioP1;P1;durP2;ratioP2;P2;SDS_P1;SDS_P2;PMS_P1;PMS_P2;Temp;Humidity;BMP_temperature;BMP_pressure;BME280_temperature;BME280_humidity;BME280_pressure;Samples;Min_cycle;Max_cycle;Signal;HPM_P1;HPM_P2
2022/03/02 00:01:56;;;;;;;11.43;7.20;;;0.30;51.80;;;;;;5034847;28;20034;-24
2022/03/02 00:04:22;;;;;;;11.98;7.10;;;0.20;50.90;;;;;;5034852;28;20033;-23
2022/03/02 00:06:48;;;;;;;10.18;5.68;;;0.20;50.90;;;;;;5034749;28;20028;-23
2022/03/02 00:09:14;;;;;;;11.30;6.57;;;0.20;51.00;;;;;;5035101;28;20025;-22
2022/03/02 00:11:40;;;;;;;10.07;4.82;;;0.20;50.60;;;;;;5034709;28;20511;-22
2022/03/02 00:14:06;;;;;;;10.05;5.20;;;0.10;50.50;;;;;;5034621;28;20108;-19
2022/03/02 00:16:35;;;;;;;9.15;5.38;;;0.10;50.10;;;;;;5034029;28;20477;-20
2022/03/02 00:19:04;;;;;;;9.45;5.15;;;0.00;50.10;;;;;;5034978;28;20104;-21
2022/03/02 00:21:30;;;;;;;14.60;8.48;;;0.00;50.00;;;;;;5033842;28;20039;-19
2022/03/02 00:23:55;;;;;;;17.08;8.45;;;0.00;51.50;;;;;;5034402;28;20055;-20
2022/03/02 00:26:21;;;;;;;11.32;5.55;;;0.00;52.50;;;;;;5034528;28;20022;-20
2022/03/02 00:28:48;;;;;;;11.93;5.78;;;0.00;51.00;;;;;;5034387;28;20370;-20
2022/03/02 00:31:14;;;;;;;8.65;4.75;;;0.00;51.10;;;;;;5033082;28;20060;-19
2022/03/02 00:33:40;;;;;;;11.43;5.85;;;-0.10;50.70;;;;;;5034361;28;20377;-21
2022/03/02 00:36:06;;;;;;;11.00;5.43;;;-0.10;51.00;;;;;;5034451;28;20385;-18
2022/03/02 00:38:32;;;;;;;11.18;5.53;;;-0.10;50.60;;;;;;5034506;28;20033;-18
2022/03/02 00:40:58;;;;;;;10.63;5.07;;;-0.20;50.40;;;;;;5034407;28;20036;-19
2022/03/02 00:43:25;;;;;;;17.27;9.60;;;-0.20;50.80;;;;;;5034111;28;20095;-19
2022/03/02 00:45:50;;;;;;;20.90;10.68;;;-0.20;51.20;;;;;;5034080;28;20481;-19
2022/03/02 00:48:17;;;;;;;9.75;6.28;;;-0.20;52.30;;;;;;5034019;28;20028;-20
2022/03/02 00:50:43;;;;;;;15.20;8.77;;;-0.20;52.40;;;;;;5032514;28;20116;-19
2022/03/02 00:53:09;;;;;;;11.25;5.93;;;-0.30;54.00;;;;;;5034140;28;20057;-20
2022/03/02 00:55:36;;;;;;;14.85;8.15;;;-0.30;52.30;;;;;;5033852;28;20038;-20
2022/03/02 00:58:03;;;;;;;11.27;5.60;;;-0.30;52.20;;;;;;5034062;28;20095;-21
2022/03/02 01:00:29;;;;;;;21.10;11.05;;;-0.30;51.70;;;;;;5033885;28;20018;-20
2022/03/02 01:02:56;;;;;;;18.05;9.57;;;-0.30;52.50;;;;;;5034024;28;20017;-21
2022/03/02 01:05:22;;;;;;;28.98;15.48;;;-0.30;51.90;;;;;;5033539;28;20577;-22
2022/03/02 01:07:48;;;;;;;16.58;9.00;;;-0.40;57.40;;;;;;5033888;28;20017;-22
2022/03/02 01:10:15;;;;;;;15.30;7.82;;;-0.40;55.20;;;;;;5033452;28;20134;-20
2022/03/02 01:12:42;;;;;;;15.65;7.28;;;-0.40;53.70;;;;;;5033866;28;20030;-22
2022/03/02 01:15:10;;;;;;;13.27;7.28;;;-0.50;52.90;;;;;;5033509;28;20025;-22
2022/03/02 01:17:36;;;;;;;11.95;6.35;;;-0.50;52.70;;;;;;5033329;28;20046;-19
2022/03/02 01:20:08;;;;;;;17.70;8.82;;;-0.50;52.40;;;;;;5033605;28;20021;-21
2022/03/02 01:22:34;;;;;;;13.23;7.07;;;-0.50;53.20;;;;;;5033113;28;20026;-19
2022/03/02 01:25:01;;;;;;;21.42;11.35;;;-0.50;53.20;;;;;;5033723;28;20034;-21
2022/03/02 01:27:27;;;;;;;15.93;7.57;;;-0.50;53.20;;;;;;5033363;28;20160;-21
2022/03/02 01:29:53;;;;;;;13.07;5.95;;;-0.60;53.60;;;;;;5033337;28;20040;-20
2022/03/02 01:32:19;;;;;;;18.75;9.43;;;-0.60;52.20;;;;;;5033337;28;20022;-19
2022/03/02 01:34:46;;;;;;;16.45;8.40;;;-0.60;52.40;;;;;;5032912;28;20030;-20
2022/03/02 01:37:12;;;;;;;17.45;9.40;;;-0.60;53.40;;;;;;5033466;28;20030;-19
2022/03/02 01:39:38;;;;;;;11.80;6.38;;;-0.60;53.40;;;;;;5033540;28;20155;-18
2022/03/02 01:42:05;;;;;;;16.98;9.63;;;-0.70;53.60;;;;;;5033196;28;20032;-21
2022/03/02 01:44:33;;;;;;;17.92;10.45;;;-0.70;53.20;;;;;;5033489;28;20381;-20
2022/03/02 01:46:59;;;;;;;21.67;13.70;;;-0.70;55.40;;;;;;5033545;28;20025;-20
2022/03/02 01:49:25;;;;;;;21.75;13.13;;;-0.70;55.70;;;;;;5033189;28;20037;-19
2022/03/02 01:51:51;;;;;;;18.67;10.80;;;-0.80;56.40;;;;;;5033368;28;20025;-20
2022/03/02 01:54:17;;;;;;;17.23;10.10;;;-0.80;55.60;;;;;;5033127;28;20056;-19
2022/03/02 01:56:43;;;;;;;12.60;7.05;;;-0.80;56.60;;;;;;5033190;28;20417;-19
2022/03/02 01:59:10;;;;;;;21.90;11.50;;;-0.80;54.70;;;;;;5033237;28;20033;-19
2022/03/02 02:01:36;;;;;;;23.38;13.10;;;-0.80;54.80;;;;;;5033262;28;20098;-20
2022/03/02 02:04:04;;;;;;;16.13;7.82;;;-0.80;55.00;;;;;;5032839;28;20032;-18
2022/03/02 02:06:31;;;;;;;16.08;7.32;;;-0.90;55.30;;;;;;5032819;28;20029;-20
2022/03/02 02:08:59;;;;;;;14.00;6.70;;;-0.80;54.80;;;;;;5033350;28;20556;-19
2022/03/02 02:11:26;;;;;;;12.45;7.38;;;-0.90;54.30;;;;;;5033060;28;20037;-19
2022/03/02 02:13:52;;;;;;;25.85;15.15;;;-0.90;54.10;;;;;;5032868;28;20045;-20
2022/03/02 02:16:20;;;;;;;14.73;8.07;;;-0.90;55.60;;;;;;5032920;28;20072;-18
2022/03/02 02:18:46;;;;;;;13.43;6.50;;;-1.00;55.30;;;;;;5032709;28;20033;-19
2022/03/02 02:21:12;;;;;;;18.92;11.85;;;-1.00;55.10;;;;;;5032795;28;20036;-19
2022/03/02 02:23:39;;;;;;;24.15;14.75;;;-1.00;56.60;;;;;;5032759;28;20095;-18
2022/03/02 02:26:07;;;;;;;11.70;6.45;;;-1.00;55.60;;;;;;5032770;28;20029;-19
2022/03/02 02:28:33;;;;;;;11.70;6.10;;;-1.00;54.80;;;;;;5032532;28;20033;-19
2022/03/02 02:31:01;;;;;;;13.20;7.35;;;-1.00;54.40;;;;;;5033039;28;20057;-20
2022/03/02 02:33:28;;;;;;;10.20;5.60;;;-1.10;54.30;;;;;;5032664;28;20034;-20
2022/03/02 02:35:54;;;;;;;12.27;7.22;;;-1.10;54.40;;;;;;5032656;28;20108;-19
2022/03/02 02:38:24;;;;;;;15.45;7.63;;;-1.10;54.10;;;;;;5032797;28;20026;-22
2022/03/02 02:40:51;;;;;;;18.52;9.63;;;-1.10;53.70;;;;;;5032690;28;20030;-20
2022/03/02 02:43:19;;;;;;;14.82;7.88;;;-1.10;54.60;;;;;;5032940;28;20100;-21
2022/03/02 02:45:45;;;;;;;14.75;7.55;;;-1.10;54.30;;;;;;5035884;28;20117;-20
2022/03/02 02:48:12;;;;;;;12.65;7.20;;;-1.20;54.10;;;;;;5036888;28;20025;-21
2022/03/02 02:50:37;;;;;;;14.63;7.82;;;-1.10;54.40;;;;;;5036463;28;20021;-20
2022/03/02 02:53:06;;;;;;;13.77;7.55;;;-1.10;55.10;;;;;;5036187;28;20095;-21
2022/03/02 02:55:34;;;;;;;16.50;8.25;;;-1.10;55.90;;;;;;5036149;28;20018;-21
2022/03/02 02:58:00;;;;;;;13.73;7.93;;;-1.10;54.60;;;;;;5036143;28;20029;-21
2022/03/02 03:00:30;;;;;;;23.77;13.65;;;-1.10;55.70;;;;;;5035838;28;20029;-21
2022/03/02 03:02:58;;;;;;;22.45;13.38;;;-1.20;57.00;;;;;;5036004;28;20022;-20
2022/03/02 03:05:26;;;;;;;17.25;9.18;;;-1.20;57.20;;;;;;5035873;28;20037;-19
2022/03/02 03:07:56;;;;;;;21.20;13.02;;;-1.20;56.80;;;;;;5037022;28;20017;-20
2022/03/02 03:10:23;;;;;;;14.30;6.47;;;-1.20;57.40;;;;;;5035998;28;20072;-19
2022/03/02 03:12:49;;;;;;;14.00;7.28;;;-1.20;54.50;;;;;;5036429;28;20029;-20
2022/03/02 03:15:17;;;;;;;17.95;9.45;;;-1.20;53.70;;;;;;5035777;28;20025;-19
2022/03/02 03:17:44;;;;;;;18.27;10.43;;;-1.10;54.40;;;;;;5035610;28;20041;-18
2022/03/02 03:20:13;;;;;;;25.33;11.68;;;-1.10;55.60;;;;;;5035774;28;20028;-18
2022/03/02 03:22:40;;;;;;;30.38;15.65;;;-1.10;57.40;;;;;;5035980;28;20029;-18
2022/03/02 03:25:07;;;;;;;29.75;16.55;;;-1.00;58.50;;;;;;5035603;28;20104;-19
2022/03/02 03:27:34;;;;;;;22.52;12.65;;;-0.90;59.50;;;;;;5035838;28;20028;-19
2022/03/02 03:30:00;;;;;;;27.17;16.65;;;-0.90;58.70;;;;;;5035490;28;20382;-18
2022/03/02 03:32:26;;;;;;;23.85;13.13;;;-0.80;59.00;;;;;;5035303;28;20077;-19
2022/03/02 03:34:53;;;;;;;27.45;15.15;;;-0.80;57.70;;;;;;5035639;28;20092;-19
2022/03/02 03:37:19;;;;;;;18.83;9.05;;;-0.80;57.30;;;;;;5035598;28;20034;-20
2022/03/02 03:39:45;;;;;;;29.20;15.32;;;-0.70;57.80;;;;;;5035602;28;20033;-18
2022/03/02 03:42:11;;;;;;;21.30;11.18;;;-0.70;58.40;;;;;;5035445;28;20044;-19
2022/03/02 03:44:37;;;;;;;17.52;10.10;;;-0.70;58.10;;;;;;5035069;28;20032;-20
2022/03/02 03:47:06;;;;;;;21.58;10.98;;;-0.70;58.80;;;;;;5035214;28;20028;-21
2022/03/02 03:49:32;;;;;;;23.75;13.38;;;-0.70;58.60;;;;;;5035108;28;20091;-21
2022/03/02 03:51:58;;;;;;;17.55;9.65;;;-0.70;57.60;;;;;;5036263;28;20072;-21
2022/03/02 03:54:24;;;;;;;24.02;13.02;;;-0.70;58.40;;;;;;5035659;28;20022;-21
2022/03/02 03:56:49;;;;;;;17.20;8.48;;;-0.70;57.80;;;;;;5033970;28;20033;-21
2022/03/02 03:59:15;;;;;;;15.57;7.90;;;-0.70;56.60;;;;;;5035384;28;20052;-20
2022/03/02 04:01:41;;;;;;;24.13;13.13;;;-0.70;56.10;;;;;;5034914;28;20036;-21
2022/03/02 04:04:07;;;;;;;22.58;13.05;;;-0.70;58.10;;;;;;5035074;28;20026;-21
2022/03/02 04:06:33;;;;;;;24.08;13.30;;;-0.60;58.20;;;;;;5034645;28;20032;-20
2022/03/02 04:08:58;;;;;;;29.60;16.08;;;-0.70;57.70;;;;;;5034772;28;20080;-19
2022/03/02 04:11:24;;;;;;;15.18;8.23;;;-0.70;58.70;;;;;;5034761;28;20036;-21
2022/03/02 04:13:53;;;;;;;21.50;11.63;;;-0.70;56.40;;;;;;5034665;28;20108;-20
2022/03/02 04:16:19;;;;;;;21.90;12.07;;;-0.70;56.70;;;;;;5034336;28;20120;-20
2022/03/02 04:18:45;;;;;;;21.63;11.88;;;-0.70;57.10;;;;;;5034504;28;20037;-19
2022/03/02 04:21:11;;;;;;;16.10;8.10;;;-0.70;58.70;;;;;;5033296;28;20120;-19
2022/03/02 04:23:37;;;;;;;21.88;12.20;;;-0.70;58.10;;;;;;5035119;28;20415;-19
2022/03/02 04:26:02;;;;;;;21.52;11.65;;;-0.70;57.80;;;;;;5034484;28;20026;-19
2022/03/02 04:28:29;;;;;;;18.85;11.52;;;-0.70;57.80;;;;;;5034713;28;20040;-20
2022/03/02 04:30:55;;;;;;;21.27;12.63;;;-0.70;59.70;;;;;;5034659;28;20099;-20
2022/03/02 04:33:21;;;;;;;14.82;8.02;;;-0.70;60.10;;;;;;5034294;28;20021;-20
2022/03/02 04:35:47;;;;;;;26.10;12.75;;;-0.70;59.60;;;;;;5034164;28;20029;-20
2022/03/02 04:38:13;;;;;;;13.18;7.40;;;-0.80;58.50;;;;;;5034040;28;20378;-20
2022/03/02 04:40:39;;;;;;;13.63;7.25;;;-0.80;57.90;;;;;;5034471;28;20030;-20
2022/03/02 04:43:05;;;;;;;14.85;7.10;;;-0.80;58.20;;;;;;5034442;28;20112;-19
2022/03/02 04:45:31;;;;;;;11.68;6.00;;;-0.80;57.90;;;;;;5034366;28;20446;-19
2022/03/02 04:47:59;;;;;;;15.95;8.10;;;-0.80;57.70;;;;;;5034335;28;20465;-20
2022/03/02 04:50:26;;;;;;;11.52;5.93;;;-0.80;58.10;;;;;;5034023;28;20112;-21
2022/03/02 04:52:53;;;;;;;9.70;4.85;;;-0.80;56.70;;;;;;5034218;28;20030;-19
2022/03/02 04:55:20;;;;;;;11.38;6.25;;;-0.80;57.10;;;;;;5033911;28;20075;-20
2022/03/02 04:57:52;;;;;;;12.65;6.35;;;-0.90;57.00;;;;;;5033724;28;20033;-21
2022/03/02 05:00:25;;;;;;;12.52;6.82;;;-0.90;57.90;;;;;;5033621;28;20485;-18
2022/03/02 05:02:52;;;;;;;13.60;7.07;;;-0.90;58.00;;;;;;5033863;28;20052;-20
2022/03/02 05:05:21;;;;;;;13.95;7.75;;;-0.90;58.70;;;;;;5033883;28;20017;-19
2022/03/02 05:07:48;;;;;;;16.75;10.18;;;-0.90;58.90;;;;;;5033826;28;20032;-19
2022/03/02 05:10:16;;;;;;;20.30;11.85;;;-1.00;60.00;;;;;;5032353;28;20028;-20
2022/03/02 05:12:43;;;;;;;14.43;8.68;;;-1.00;59.50;;;;;;5033611;28;20087;-19
2022/03/02 05:15:11;;;;;;;23.05;11.27;;;-1.00;59.40;;;;;;5033816;28;20389;-20
2022/03/02 05:17:38;;;;;;;18.02;8.90;;;-1.00;58.90;;;;;;5033290;28;20103;-20
2022/03/02 05:20:07;;;;;;;12.77;6.47;;;-1.00;58.30;;;;;;5033493;28;20021;-19
2022/03/02 05:22:32;;;;;;;10.00;5.30;;;-1.10;57.70;;;;;;5033353;28;20037;-20
2022/03/02 05:24:58;;;;;;;7.95;4.10;;;-1.10;57.70;;;;;;5033743;28;20030;-21
2022/03/02 05:27:25;;;;;;;9.23;4.53;;;-1.10;57.10;;;;;;5033350;28;20014;-20
2022/03/02 05:29:51;;;;;;;13.48;7.68;;;-1.10;56.70;;;;;;5032122;28;20032;-19
2022/03/02 05:32:17;;;;;;;21.45;13.35;;;-1.20;57.30;;;;;;5031936;28;20049;-19
2022/03/02 05:34:43;;;;;;;12.05;6.95;;;-1.30;57.60;;;;;;5033164;28;20393;-19
2022/03/02 05:37:10;;;;;;;12.32;6.57;;;-1.30;58.20;;;;;;5033346;28;20030;-18
2022/03/02 05:39:36;;;;;;;12.15;6.88;;;-1.30;57.60;;;;;;5034296;28;20025;-20
2022/03/02 05:42:02;;;;;;;16.88;8.35;;;-1.40;57.90;;;;;;5033532;28;20030;-19
2022/03/02 05:44:29;;;;;;;21.70;10.63;;;-1.40;57.90;;;;;;5033342;28;20029;-20
2022/03/02 05:46:54;;;;;;;30.92;17.80;;;-1.40;57.80;;;;;;5033471;28;20119;-20
2022/03/02 05:49:21;;;;;;;26.40;14.02;;;-1.40;58.10;;;;;;5033040;28;20030;-19
2022/03/02 05:51:48;;;;;;;20.73;10.90;;;-1.50;62.20;;;;;;5033097;28;20052;-19
2022/03/02 05:54:14;;;;;;;17.63;10.07;;;-1.50;60.20;;;;;;5032864;28;20037;-20
2022/03/02 05:56:41;;;;;;;27.80;14.68;;;-1.50;60.50;;;;;;5033583;28;20076;-20
2022/03/02 05:59:08;;;;;;;29.90;15.60;;;-1.50;59.60;;;;;;5033250;28;20030;-18
2022/03/02 06:01:35;;;;;;;34.42;17.02;;;-1.50;62.50;;;;;;5033013;28;20108;-20
2022/03/02 06:04:03;;;;;;;23.85;12.30;;;-1.50;63.20;;;;;;5032847;28;20025;-21
2022/03/02 06:06:30;;;;;;;26.45;14.20;;;-1.50;62.80;;;;;;5033118;28;20026;-19
2022/03/02 06:08:56;;;;;;;14.82;7.65;;;-1.50;62.60;;;;;;5033226;28;20028;-21
2022/03/02 06:11:23;;;;;;;15.55;7.65;;;-1.50;60.90;;;;;;5033239;28;20053;-19
2022/03/02 06:13:51;;;;;;;9.48;5.00;;;-1.40;60.90;;;;;;5032895;28;20112;-21
2022/03/02 06:16:17;;;;;;;18.90;9.40;;;-1.40;59.60;;;;;;5032613;28;20091;-20
2022/03/02 06:18:43;;;;;;;8.98;4.93;;;-1.30;59.20;;;;;;5032885;28;20057;-22
2022/03/02 06:21:34;;;;;;;9.73;4.78;;;-1.20;59.00;;;;;;5036787;28;20049;-18
2022/03/02 06:24:00;;;;;;;43.80;21.58;;;-1.10;58.20;;;;;;5036626;28;20064;-19
2022/03/02 06:26:27;;;;;;;27.83;13.63;;;-1.00;59.60;;;;;;5036476;28;20117;-19
2022/03/02 06:28:53;;;;;;;16.10;7.47;;;-0.90;59.00;;;;;;5036648;28;20034;-20
2022/03/02 06:31:19;;;;;;;20.58;10.95;;;-0.80;59.20;;;;;;5035433;28;20037;-20
2022/03/02 06:33:47;;;;;;;11.40;5.38;;;-0.70;60.00;;;;;;5036569;28;20033;-18
2022/03/02 06:36:14;;;;;;;15.95;8.40;;;-0.60;58.10;;;;;;5036133;28;20040;-21
2022/03/02 06:38:40;;;;;;;10.18;5.40;;;-0.40;57.70;;;;;;5036418;28;20030;-20
2022/03/02 06:41:28;;;;;;;10.70;5.72;;;-0.30;56.70;;;;;;5036973;28;20028;-20
2022/03/02 06:44:02;;;;;;;10.43;5.43;;;-0.10;55.80;;;;;;5037300;28;20030;-20
2022/03/02 06:46:42;;;;;;;17.77;8.65;;;0.00;56.10;;;;;;5036506;28;20029;-19
2022/03/02 06:49:23;;;;;;;13.52;6.75;;;0.00;56.20;;;;;;5036465;28;20025;-21
2022/03/02 06:51:57;;;;;;;25.13;13.38;;;0.10;57.70;;;;;;5036865;28;20033;-21
2022/03/02 06:54:29;;;;;;;39.33;20.65;;;0.30;56.90;;;;;;5036004;28;20563;-20
2022/03/02 06:57:02;;;;;;;15.48;8.30;;;0.40;57.90;;;;;;5036130;28;20029;-21
2022/03/02 06:59:33;;;;;;;34.35;18.55;;;0.50;58.00;;;;;;5036490;28;20079;-19
2022/03/02 07:02:03;;;;;;;16.70;8.93;;;0.70;57.50;;;;;;5036132;28;20473;-21
2022/03/02 07:04:40;;;;;;;30.35;17.33;;;0.80;57.20;;;;;;5036056;28;20026;-21
2022/03/02 07:07:06;;;;;;;36.50;20.38;;;0.90;58.00;;;;;;5036311;28;20038;-21
2022/03/02 07:09:33;;;;;;;30.00;16.20;;;1.00;59.10;;;;;;5036039;28;20334;-21
2022/03/02 07:12:05;;;;;;;39.63;21.27;;;1.10;60.20;;;;;;5035989;28;20037;-22
2022/03/02 07:14:33;;;;;;;30.17;16.77;;;1.20;59.90;;;;;;5035771;28;20529;-20
2022/03/02 07:17:01;;;;;;;34.17;19.08;;;1.30;58.50;;;;;;5035742;28;20068;-19
2022/03/02 07:19:27;;;;;;;22.50;12.02;;;1.40;58.50;;;;;;5036578;28;20021;-20
2022/03/02 07:21:55;;;;;;;30.52;17.15;;;1.50;58.70;;;;;;5035966;28;20372;-20
2022/03/02 07:24:23;;;;;;;35.13;19.88;;;1.60;56.90;;;;;;5035428;28;20029;-21
2022/03/02 07:26:54;;;;;;;25.35;13.50;;;1.70;57.10;;;;;;5036183;28;20044;-21
2022/03/02 07:29:23;;;;;;;18.52;10.40;;;1.80;57.30;;;;;;5035887;28;20036;-22
2022/03/02 07:31:52;;;;;;;21.23;11.80;;;1.90;56.90;;;;;;5034148;28;20053;-21
2022/03/02 07:34:19;;;;;;;27.27;16.60;;;2.00;57.10;;;;;;5035229;28;20024;-22
2022/03/02 07:36:46;;;;;;;28.85;14.27;;;2.10;57.40;;;;;;5035643;28;20109;-20
2022/03/02 07:39:12;;;;;;;29.95;15.23;;;2.30;56.60;;;;;;5035690;28;20033;-22
2022/03/02 07:41:38;;;;;;;25.35;14.93;;;2.40;56.60;;;;;;5035317;28;20033;-22
2022/03/02 07:44:05;;;;;;;36.03;19.98;;;2.50;57.50;;;;;;5035356;28;20033;-21
2022/03/02 07:46:32;;;;;;;27.05;14.45;;;2.60;56.90;;;;;;5035572;28;20029;-22
2022/03/02 07:48:59;;;;;;;24.60;15.45;;;2.80;56.60;;;;;;5035652;28;20037;-23
2022/03/02 07:51:26;;;;;;;25.92;14.73;;;2.90;57.00;;;;;;5035183;28;20075;-22
2022/03/02 07:54:02;;;;;;;27.42;14.35;;;3.00;56.80;;;;;;5035382;28;20094;-22
2022/03/02 07:56:31;;;;;;;18.95;10.98;;;3.10;56.40;;;;;;5034827;28;20550;-23
2022/03/02 07:59:07;;;;;;;18.25;9.70;;;3.30;57.50;;;;;;5035333;28;20026;-23
2022/03/02 08:01:36;;;;;;;20.10;11.77;;;3.40;56.00;;;;;;5035031;28;20385;-23
2022/03/02 08:04:09;;;;;;;19.98;10.52;;;3.60;56.60;;;;;;5035085;28;20044;-22
2022/03/02 08:06:39;;;;;;;19.55;11.43;;;3.70;55.30;;;;;;5035300;28;20034;-22
2022/03/02 08:09:07;;;;;;;18.55;10.48;;;3.80;55.60;;;;;;5035206;28;20033;-23
2022/03/02 08:11:37;;;;;;;16.83;8.80;;;4.00;55.40;;;;;;5035068;28;20026;-24
2022/03/02 08:14:04;;;;;;;18.15;9.88;;;4.20;55.70;;;;;;5034738;28;20032;-22
2022/03/02 08:16:32;;;;;;;15.88;9.43;;;4.40;55.30;;;;;;5034196;28;20015;-22
2022/03/02 08:19:01;;;;;;;30.35;17.08;;;4.50;55.60;;;;;;5035788;28;20041;-22
2022/03/02 08:21:29;;;;;;;17.15;9.27;;;4.80;56.00;;;;;;5034579;28;20476;-24
2022/03/02 08:23:57;;;;;;;24.33;13.23;;;5.00;54.60;;;;;;5034660;28;20025;-23
2022/03/02 08:26:25;;;;;;;17.08;10.27;;;5.30;55.70;;;;;;5034335;28;20359;-23
2022/03/02 08:29:00;;;;;;;23.17;12.18;;;5.50;54.70;;;;;;5035043;28;20024;-22
2022/03/02 08:31:27;;;;;;;24.77;14.10;;;5.80;54.10;;;;;;5034348;28;20120;-24
2022/03/02 08:33:55;;;;;;;22.15;13.30;;;6.00;54.40;;;;;;5034654;28;20485;-24
2022/03/02 08:36:24;;;;;;;22.20;12.73;;;6.20;53.80;;;;;;5034286;28;20041;-24
2022/03/02 08:38:51;;;;;;;26.70;15.13;;;6.40;53.70;;;;;;5034565;28;20483;-24
2022/03/02 08:41:21;;;;;;;26.08;15.45;;;6.60;53.20;;;;;;5034114;28;20114;-23
2022/03/02 08:43:48;;;;;;;23.52;13.43;;;6.90;52.50;;;;;;5034180;28;20064;-22
2022/03/02 08:46:14;;;;;;;27.17;15.45;;;7.10;52.60;;;;;;5032753;28;20025;-24
2022/03/02 08:48:41;;;;;;;23.10;13.18;;;7.30;52.80;;;;;;5033972;28;20040;-22
2022/03/02 08:51:08;;;;;;;20.80;11.63;;;7.50;51.60;;;;;;5032743;28;20388;-25
2022/03/02 08:53:34;;;;;;;23.50;13.02;;;7.70;51.20;;;;;;5034529;28;20025;-24
2022/03/02 08:56:03;;;;;;;15.60;9.38;;;8.00;50.20;;;;;;5034178;28;20029;-24
2022/03/02 08:58:30;;;;;;;20.08;11.60;;;8.20;50.00;;;;;;5033732;28;20029;-23
2022/03/02 09:01:00;;;;;;;21.95;12.95;;;8.40;49.60;;;;;;5034609;28;20061;-23
2022/03/02 09:03:27;;;;;;;15.98;9.68;;;8.70;49.10;;;;;;5033804;28;20030;-22
2022/03/02 09:05:54;;;;;;;15.98;9.88;;;8.90;48.40;;;;;;5033620;28;20026;-22
2022/03/02 09:08:20;;;;;;;17.38;10.50;;;9.10;48.00;;;;;;5033528;28;20470;-22
2022/03/02 09:10:46;;;;;;;21.35;11.38;;;9.40;48.10;;;;;;5034172;28;20029;-22
2022/03/02 09:13:13;;;;;;;19.38;11.45;;;9.60;47.30;;;;;;5034230;28;20381;-22
2022/03/02 09:15:40;;;;;;;18.55;10.25;;;9.80;47.40;;;;;;5033584;28;20022;-22
2022/03/02 09:18:07;;;;;;;20.42;11.35;;;10.00;46.90;;;;;;5033392;28;20062;-24
2022/03/02 09:20:34;;;;;;;12.80;7.90;;;10.30;46.70;;;;;;5033530;28;20083;-24
2022/03/02 09:23:04;;;;;;;16.00;9.23;;;10.50;46.40;;;;;;5033453;28;20048;-24
2022/03/02 09:25:32;;;;;;;13.88;8.70;;;10.70;46.10;;;;;;5033747;28;20018;-24
2022/03/02 09:27:59;;;;;;;14.90;9.38;;;10.90;45.70;;;;;;5033591;28;20124;-23
2022/03/02 09:30:26;;;;;;;17.33;10.60;;;11.20;44.90;;;;;;5033435;28;20026;-22
2022/03/02 09:32:55;;;;;;;15.05;9.30;;;11.40;44.70;;;;;;5033349;28;20477;-23
2022/03/02 09:35:22;;;;;;;12.23;7.90;;;11.60;44.80;;;;;;5033439;28;20378;-23
2022/03/02 09:37:53;;;;;;;15.68;9.63;;;11.80;44.50;;;;;;5033543;28;20022;-22
2022/03/02 09:40:25;;;;;;;14.02;8.52;;;12.00;43.90;;;;;;5033121;28;20038;-25
2022/03/02 09:42:57;;;;;;;12.02;8.13;;;12.20;43.70;;;;;;5033200;28;20041;-22
2022/03/02 09:45:25;;;;;;;13.32;8.85;;;12.40;43.60;;;;;;5033175;28;20025;-22
2022/03/02 09:47:58;;;;;;;13.60;8.45;;;12.70;43.30;;;;;;5033132;28;20385;-22
2022/03/02 09:50:31;;;;;;;14.98;9.15;;;12.90;42.90;;;;;;5032889;28;20026;-25
2022/03/02 09:53:06;;;;;;;13.50;7.90;;;13.20;42.80;;;;;;5033327;28;20025;-24
2022/03/02 09:55:36;;;;;;;14.85;9.75;;;13.40;42.10;;;;;;5032630;28;20482;-23
2022/03/02 09:58:03;;;;;;;11.57;8.02;;;13.70;42.00;;;;;;5032956;28;20056;-22
2022/03/02 10:00:30;;;;;;;12.10;8.20;;;13.90;41.30;;;;;;5033037;28;20033;-22
2022/03/02 10:02:59;;;;;;;14.80;9.88;;;14.20;41.50;;;;;;5032959;28;20035;-22
2022/03/02 10:05:30;;;;;;;12.55;8.88;;;14.40;40.90;;;;;;5031665;28;20112;-22
2022/03/02 10:08:07;;;;;;;9.82;6.35;;;14.60;40.80;;;;;;5031717;28;20025;-23
2022/03/02 10:10:37;;;;;;;13.32;7.65;;;14.80;40.70;;;;;;5033084;28;20087;-22
2022/03/02 10:13:16;;;;;;;16.58;10.43;;;15.00;40.50;;;;;;5032890;28;20034;-23
2022/03/02 10:15:44;;;;;;;11.63;7.47;;;15.30;40.00;;;;;;5032919;28;20075;-23
2022/03/02 10:18:12;;;;;;;13.88;8.40;;;15.50;39.60;;;;;;5032633;28;20046;-22
2022/03/02 10:20:53;;;;;;;13.23;8.52;;;15.70;39.50;;;;;;5032989;28;20507;-24
2022/03/02 10:23:41;;;;;;;11.48;7.50;;;15.90;39.40;;;;;;5033174;28;20108;-24
2022/03/02 10:26:24;;;;;;;13.93;9.30;;;16.10;39.00;;;;;;5032843;28;20025;-21
2022/03/02 10:29:28;;;;;;;11.90;8.40;;;16.30;38.70;;;;;;5033119;28;20026;-23
2022/03/02 10:32:16;;;;;;;8.65;5.65;;;16.50;39.00;;;;;;5032803;28;20030;-23
2022/03/02 10:34:50;;;;;;;8.80;5.38;;;16.80;39.20;;;;;;5032986;28;20022;-22
2022/03/02 10:37:39;;;;;;;12.63;8.65;;;17.10;39.10;;;;;;5032906;28;20108;-22
2022/03/02 10:40:18;;;;;;;11.93;7.72;;;17.40;37.10;;;;;;5032822;28;20026;-22
2022/03/02 10:43:04;;;;;;;8.93;5.95;;;17.60;38.60;;;;;;5033393;28;20123;-22
2022/03/02 10:45:51;;;;;;;12.50;8.93;;;17.90;38.40;;;;;;5032672;28;20083;-22
2022/03/02 10:48:38;;;;;;;16.23;10.50;;;18.20;35.80;;;;;;5032523;28;20098;-21
2022/03/02 10:51:06;;;;;;;14.18;9.68;;;18.40;35.70;;;;;;5032536;28;20393;-22
2022/03/02 10:53:37;;;;;;;12.27;9.05;;;18.60;37.00;;;;;;5032509;28;20470;-22
2022/03/02 10:56:04;;;;;;;12.48;6.97;;;18.80;37.00;;;;;;5032546;28;20041;-22
2022/03/02 10:58:32;;;;;;;16.05;10.25;;;19.00;36.70;;;;;;5032292;28;20545;-22
2022/03/02 11:01:01;;;;;;;15.27;9.23;;;19.20;36.80;;;;;;5032462;28;20030;-22
2022/03/02 11:03:34;;;;;;;16.27;12.15;;;19.40;35.90;;;;;;5032393;28;20381;-22
2022/03/02 11:06:02;;;;;;;11.95;8.20;;;19.60;35.90;;;;;;5034332;28;20477;-22
2022/03/02 11:08:30;;;;;;;13.57;9.27;;;19.70;35.60;;;;;;5035728;28;20108;-22
2022/03/02 11:10:56;;;;;;;13.18;8.40;;;19.90;35.30;;;;;;5035905;28;20037;-22
2022/03/02 11:13:23;;;;;;;14.63;10.50;;;20.10;35.70;;;;;;5036237;28;20029;-22
2022/03/02 11:15:57;;;;;;;14.25;10.32;;;20.30;35.10;;;;;;5035811;28;20030;-22
2022/03/02 11:18:36;;;;;;;14.68;9.63;;;20.40;33.80;;;;;;5035389;28;20501;-22
2022/03/02 11:21:10;;;;;;;15.20;10.20;;;20.60;34.10;;;;;;5035932;28;20021;-23
2022/03/02 11:23:42;;;;;;;16.83;10.65;;;20.60;34.20;;;;;;5035998;28;20477;-22
2022/03/02 11:26:12;;;;;;;13.27;9.82;;;20.80;34.20;;;;;;5034406;28;20033;-22
2022/03/02 11:28:48;;;;;;;12.85;9.23;;;20.90;34.20;;;;;;5036109;28;20369;-21
2022/03/02 11:31:47;;;;;;;15.32;11.10;;;21.20;33.80;;;;;;5035534;28;20481;-22
2022/03/02 11:34:20;;;;;;;13.18;10.07;;;21.20;31.50;;;;;;5035674;28;20381;-23
2022/03/02 11:36:52;;;;;;;11.40;7.72;;;21.40;33.60;;;;;;5035354;28;20036;-23
2022/03/02 11:39:21;;;;;;;13.23;9.52;;;21.60;33.60;;;;;;5035402;28;20032;-23
2022/03/02 11:41:56;;;;;;;12.98;9.48;;;21.80;33.10;;;;;;5035362;28;20460;-24
2022/03/02 11:44:27;;;;;;;12.30;9.13;;;21.80;32.60;;;;;;5035656;28;20034;-24
2022/03/02 11:46:53;;;;;;;12.90;10.13;;;22.00;32.90;;;;;;5035277;28;20044;-23
2022/03/02 11:49:19;;;;;;;13.55;9.90;;;22.10;32.50;;;;;;5035964;28;20026;-22
2022/03/02 11:51:45;;;;;;;9.55;6.55;;;22.30;32.60;;;;;;5036013;28;20026;-23
2022/03/02 11:54:11;;;;;;;14.32;8.65;;;22.40;32.90;;;;;;5035104;28;20116;-23
2022/03/02 11:56:37;;;;;;;14.15;10.20;;;22.50;33.00;;;;;;5034980;28;20037;-22
2022/03/02 11:59:03;;;;;;;12.75;10.07;;;22.60;32.50;;;;;;5035326;28;20021;-22
2022/03/02 12:01:45;;;;;;;15.13;10.65;;;22.70;32.00;;;;;;5035336;28;20083;-22
2022/03/02 12:04:14;;;;;;;15.95;11.90;;;22.80;29.20;;;;;;5035244;28;20108;-22
2022/03/02 12:06:48;;;;;;;12.27;9.43;;;22.70;31.10;;;;;;5034869;28;20092;-22
2022/03/02 12:09:26;;;;;;;14.07;10.93;;;22.70;31.60;;;;;;5035257;28;20051;-23
2022/03/02 12:11:52;;;;;;;13.80;10.05;;;22.90;31.10;;;;;;5034821;28;20025;-23
2022/03/02 12:14:18;;;;;;;9.23;6.60;;;23.00;31.40;;;;;;5034652;28;20026;-23
2022/03/02 12:16:47;;;;;;;15.38;11.55;;;23.20;31.30;;;;;;5033846;28;20058;-23
2022/03/02 12:19:25;;;;;;;11.77;8.73;;;23.50;30.80;;;;;;5035043;28;20029;-23
2022/03/02 12:21:59;;;;;;;10.18;7.32;;;23.70;28.90;;;;;;5034898;28;20025;-22
2022/03/02 12:24:34;;;;;;;10.77;7.40;;;23.90;30.20;;;;;;5034721;28;20021;-21
2022/03/02 12:27:06;;;;;;;9.30;6.22;;;24.10;29.80;;;;;;5034752;28;20033;-22
2022/03/02 12:29:41;;;;;;;13.48;10.57;;;24.30;30.20;;;;;;5034818;28;20064;-22
2022/03/02 12:32:16;;;;;;;11.90;8.60;;;24.50;29.10;;;;;;5034452;28;20060;-22
2022/03/02 12:34:46;;;;;;;13.65;10.77;;;24.60;29.20;;;;;;5033155;28;20435;-22
2022/03/02 12:37:14;;;;;;;12.02;8.27;;;24.80;29.00;;;;;;5034365;28;20079;-22
2022/03/02 12:39:41;;;;;;;7.80;5.50;;;24.90;29.10;;;;;;5034303;28;20034;-23
2022/03/02 12:42:09;;;;;;;11.93;8.75;;;24.90;29.50;;;;;;5034236;28;20033;-22
2022/03/02 12:44:41;;;;;;;8.45;6.05;;;25.00;29.20;;;;;;5034004;28;20018;-21